Time;durP1;ratioP1;P1;durP2;ratioP2;P2;SDS_P1;SDS_P2;PMS_P1;PMS_P2;Temp;Humidity;BMP_temperature;BMP_pressure;BME280_temperature;BME280_humidity;BME280_pressure;Samples;Min_cycle;Max_cycle;Signal;HPM_P1;HPM_P2
2023/03/15 00:01:01;;;;;;;6.45;2.10;;;;;;;1.92;100.00;-18079.38;5022741;28;20040;-88
2023/03/15 00:03:26;;;;;;;14.00;3.63;;;;;;;1.75;100.00;-18074.81;5028165;28;20037;-88
2023/03/15 00:05:51;;;;;;;7.68;3.20;;;;;;;1.62;100.00;-18071.06;5038275;28;20049;-88
2023/03/15 00:08:18;;;;;;;7.65;2.95;;;;;;;1.51;100.00;-18068.16;5036954;28;20045;-88
2023/03/15 00:10:45;;;;;;;6.80;2.40;;;;;;;1.40;100.00;-18065.13;5020487;28;20037;-87
2023/03/15 00:13:11;;;;;;;5.18;2.28;;;;;;;1.29;100.00;-18062.22;5015962;28;20037;-87
2023/03/15 00:15:45;;;;;;;6.55;2.80;;;;;;;1.21;100.00;-18060.00;5025152;28;20052;-88
2023/03/15 00:18:10;;;;;;;9.27;3.17;;;;;;;1.22;100.00;-18060.28;5042777;28;20045;-87
2023/03/15 00:20:36;;;;;;;7.55;3.00;;;;;;;1.22;100.00;-18060.28;5038943;28;20037;-87
2023/03/15 00:23:02;;;;;;;7.25;2.92;;;;;;;1.12;100.00;-18057.78;5020533;28;20068;-87
2023/03/15 00:25:28;;;;;;;5.68;3.83;;;;;;;1.09;100.00;-18056.94;5022967;28;20084;-87
2023/03/15 00:27:53;;;;;;;11.27;4.30;;;;;;;1.15;100.00;-18058.34;5026091;28;20045;-88
2023/03/15 00:30:19;;;;;;;8.98;4.57;;;;;;;1.10;100.00;-18057.22;5033143;28;20049;-87
2023/03/15 00:32:44;;;;;;;9.00;4.50;;;;;;;1.08;100.00;-18056.66;5019658;28;20045;-88
2023/03/15 00:35:11;;;;;;;11.80;4.88;;;;;;;1.08;100.00;-18056.66;5036184;28;20498;-87
2023/03/15 00:37:37;;;;;;;7.82;4.15;;;;;;;1.12;100.00;-18057.63;5023409;28;20120;-88
2023/03/15 00:40:03;;;;;;;9.85;4.63;;;;;;;1.13;100.00;-18058.06;5034525;28;20045;-87
2023/03/15 00:42:28;;;;;;;8.52;4.40;;;;;;;1.02;100.00;-18054.88;5034540;28;20051;-88
2023/03/15 00:44:56;;;;;;;7.35;4.00;;;;;;;1.05;100.00;-18055.69;5033087;28;20523;-87
2023/03/15 00:47:22;;;;;;;8.10;4.60;;;;;;;1.06;100.00;-18055.97;5025982;28;20041;-89
2023/03/15 00:49:47;;;;;;;7.18;4.82;;;;;;;1.02;100.00;-18054.88;5041103;28;20041;-89
2023/03/15 00:52:13;;;;;;;8.55;5.05;;;;;;;1.02;100.00;-18054.88;5037315;28;20039;-89
2023/03/15 00:54:38;;;;;;;11.48;5.75;;;;;;;1.02;100.00;-18055.00;5039699;28;20041;-88
2023/03/15 00:57:03;;;;;;;7.68;5.22;;;;;;;0.99;100.00;-18054.19;5036475;28;20041;-88
2023/03/15 00:59:33;;;;;;;11.57;5.38;;;;;;;0.98;100.00;-18053.75;5024159;28;20508;-87
2023/03/15 01:02:03;;;;;;;8.38;5.93;;;;;;;1.02;100.00;-18055.00;5033134;28;20067;-87
2023/03/15 01:04:30;;;;;;;8.90;6.07;;;;;;;1.03;100.00;-18055.28;5045940;28;20041;-87
2023/03/15 01:06:56;;;;;;;10.85;7.22;;;;;;;1.05;100.00;-18055.69;5035559;28;20072;-88
2023/03/15 01:09:21;;;;;;;12.77;5.63;;;;;;;1.01;100.00;-18054.59;5030045;28;20139;-88
2023/03/15 01:11:47;;;;;;;7.25;4.57;;;;;;;0.99;100.00;-18054.19;5025879;28;20546;-89
2023/03/15 01:14:12;;;;;;;11.95;8.32;;;;;;;1.08;100.00;-18056.53;5028789;28;20120;-87
2023/03/15 01:16:37;;;;;;;11.35;6.32;;;;;;;1.10;100.00;-18057.22;5019038;28;20100;-89
2023/03/15 01:19:03;;;;;;;12.05;8.40;;;;;;;1.13;100.00;-18058.06;5026702;28;20039;-88
2023/03/15 01:21:29;;;;;;;11.77;7.50;;;;;;;1.02;100.00;-18055.00;5035127;28;20055;-88
2023/03/15 01:23:54;;;;;;;12.30;7.78;;;;;;;1.05;100.00;-18055.69;5037770;28;20051;-88
2023/03/15 01:26:20;;;;;;;14.30;7.10;;;;;;;1.09;100.00;-18056.94;5031693;28;20041;-88
2023/03/15 01:28:46;;;;;;;15.30;7.85;;;;;;;1.02;100.00;-18055.00;5035262;28;20086;-88
2023/03/15 01:31:26;;;;;;;17.20;9.38;;;;;;;1.05;100.00;-18055.84;5032282;28;20045;-88
2023/03/15 01:33:52;;;;;;;14.95;7.80;;;;;;;1.12;100.00;-18057.63;5030823;28;20128;-87
2023/03/15 01:36:17;;;;;;;19.23;9.25;;;;;;;1.15;100.00;-18058.34;5007750;28;20049;-87
2023/03/15 01:38:43;;;;;;;17.77;9.50;;;;;;;1.10;100.00;-18057.22;5023045;28;20044;-88
2023/03/15 01:41:11;;;;;;;20.92;10.02;;;;;;;1.16;100.00;-18058.75;5024355;28;20038;-88
2023/03/15 01:43:36;;;;;;;18.98;10.70;;;;;;;1.24;100.00;-18060.97;5039808;28;20075;-88
2023/03/15 01:46:01;;;;;;;24.23;12.77;;;;;;;1.27;100.00;-18061.66;5033900;28;20073;-88
2023/03/15 01:49:12;;;;;;;22.85;11.65;;;;;;;1.29;100.00;-18062.22;5041884;28;20044;-88
2023/03/15 01:51:51;;;;;;;20.90;12.35;;;;;;;1.23;100.00;-18060.69;5027192;28;20049;-88
2023/03/15 01:54:29;;;;;;;;;;;;;;;1.22;100.00;-18060.41;5038831;28;20091;-88
2023/03/15 01:57:07;;;;;;;20.70;12.68;;;;;;;1.15;100.00;-18058.34;5024400;28;19923;-88
2023/03/15 01:59:37;;;;;;;18.13;10.18;;;;;;;1.18;100.00;-18059.31;5031786;28;20040;-88
2023/03/15 02:02:04;;;;;;;20.33;12.23;;;;;;;1.22;100.00;-18060.28;5033952;28;20116;-88
2023/03/15 02:04:37;;;;;;;20.02;10.07;;;;;;;1.22;100.00;-18060.28;5036159;28;20068;-89
2023/03/15 02:07:04;;;;;;;19.13;10.35;;;;;;;1.23;100.00;-18060.69;5002556;28;20072;-87
2023/03/15 02:10:04;;;;;;;19.77;12.35;;;;;;;1.30;100.00;-18062.50;5042138;28;20041;-88
2023/03/15 02:12:31;;;;;;;21.27;12.25;;;;;;;1.33;100.00;-18063.31;4990635;28;20057;-87
2023/03/15 02:15:00;;;;;;;14.73;7.30;;;;;;;1.29;100.00;-18062.34;5030500;28;20048;-87
2023/03/15 02:17:36;;;;;;;13.95;7.57;;;;;;;1.34;100.00;-18063.59;5041235;28;20167;-88
2023/03/15 02:20:17;;;;;;;16.65;10.02;;;;;;;1.39;100.00;-18064.97;5033979;28;20140;-88
2023/03/15 02:22:54;;;;;;;17.30;9.95;;;;;;;1.42;100.00;-18065.81;5037432;28;20049;-87
2023/03/15 02:25:50;;;;;;;13.52;7.03;;;;;;;1.34;100.00;-18063.72;5010783;28;20049;-88
2023/03/15 02:28:17;;;;;;;12.40;7.15;;;;;;;1.37;100.00;-18064.44;4964637;28;20045;-87
2023/03/15 02:30:44;;;;;;;11.90;6.35;;;;;;;1.42;100.00;-18065.66;5011098;28;20046;-88
2023/03/15 02:33:37;;;;;;;16.33;8.63;;;;;;;1.45;100.00;-18066.63;5001334;28;20073;-88
2023/03/15 02:36:27;;;;;;;14.60;7.70;;;;;;;1.46;100.00;-18066.91;5013482;28;20049;-87
2023/03/15 02:38:54;;;;;;;14.57;7.32;;;;;;;1.53;100.00;-18068.72;4998650;28;20103;-88
2023/03/15 02:41:28;;;;;;;14.43;7.60;;;;;;;1.53;100.00;-18068.84;5020716;28;20091;-88
2023/03/15 02:43:58;;;;;;;14.85;7.82;;;;;;;1.53;100.00;-18068.84;5000451;28;20045;-88
2023/03/15 02:46:24;;;;;;;16.92;9.02;;;;;;;1.53;100.00;-18068.72;5012965;28;20054;-88
2023/03/15 02:48:52;;;;;;;15.80;10.02;;;;;;;1.54;100.00;-18069.00;5000045;28;20056;-88
2023/03/15 02:51:23;;;;;;;18.00;9.98;;;;;;;1.60;100.00;-18070.50;5030712;28;20126;-88
2023/03/15 02:53:48;;;;;;;16.40;10.77;;;;;;;1.53;100.00;-18068.84;5040368;28;20045;-88
2023/03/15 02:56:14;;;;;;;15.95;8.90;;;;;;;1.55;100.00;-18069.41;5026226;28;20047;-88
2023/03/15 02:58:40;;;;;;;17.80;8.52;;;;;;;1.56;100.00;-18069.69;5036339;28;20120;-88
2023/03/15 03:01:07;;;;;;;10.95;6.43;;;;;;;1.56;100.00;-18069.53;5036301;28;20172;-88
2023/03/15 03:03:32;;;;;;;14.50;7.70;;;;;;;1.55;100.00;-18069.41;5026778;28;20055;-88
2023/03/15 03:05:58;;;;;;;12.88;8.15;;;;;;;1.54;100.00;-18069.00;5026111;28;20049;-88
2023/03/15 03:08:23;;;;;;;17.85;11.05;;;;;;;1.56;100.00;-18069.53;5037056;28;20075;-88
2023/03/15 03:10:48;;;;;;;14.55;7.78;;;;;;;1.58;100.00;-18070.09;5014571;28;20038;-88
2023/03/15 03:13:14;;;;;;;12.57;6.10;;;;;;;1.52;100.00;-18068.44;5025294;28;20073;-88
2023/03/15 03:15:39;;;;;;;16.60;7.78;;;;;;;1.57;100.00;-18069.81;5036185;28;20037;-88
2023/03/15 03:18:05;;;;;;;13.38;7.38;;;;;;;1.58;100.00;-18070.25;5039777;28;20068;-88
2023/03/15 03:20:30;;;;;;;15.43;8.15;;;;;;;1.55;100.00;-18069.41;5036596;28;20044;-88
2023/03/15 03:22:56;;;;;;;16.45;8.93;;;;;;;1.61;100.00;-18070.78;5035412;28;20041;-88
2023/03/15 03:25:25;;;;;;;18.10;10.32;;;;;;;1.60;100.00;-18070.50;5032328;28;20036;-88
2023/03/15 03:27:51;;;;;;;14.23;7.15;;;;;;;1.53;100.00;-18068.84;5041153;28;20049;-87
2023/03/15 03:30:16;;;;;;;14.23;7.05;;;;;;;1.53;100.00;-18068.84;5037475;28;20038;-87
2023/03/15 03:32:41;;;;;;;13.35;7.68;;;;;;;1.58;100.00;-18070.25;5035386;28;20384;-87
2023/03/15 03:35:08;;;;;;;14.05;7.78;;;;;;;1.59;100.00;-18070.38;5040750;28;20045;-87
2023/03/15 03:37:34;;;;;;;13.38;6.28;;;;;;;1.61;100.00;-18070.78;5024967;28;20095;-87
2023/03/15 03:40:00;;;;;;;18.90;10.43;;;;;;;1.61;100.00;-18070.78;5041732;28;20056;-90
2023/03/15 03:42:25;;;;;;;13.30;7.72;;;;;;;1.64;100.00;-18071.75;5062167;28;20036;-91
2023/03/15 03:44:52;;;;;;;18.48;7.22;;;;;;;1.64;100.00;-18071.63;5048341;28;20041;-89
2023/03/15 03:47:18;;;;;;;14.60;8.30;;;;;;;1.65;100.00;-18071.91;5066998;28;20041;-90
2023/03/15 03:49:43;;;;;;;17.40;10.55;;;;;;;1.64;100.00;-18071.75;5055362;28;20031;-90
2023/03/15 03:52:08;;;;;;;17.40;8.52;;;;;;;1.67;100.00;-18072.44;5064307;28;20026;-89
2023/03/15 03:54:34;;;;;;;16.50;8.27;;;;;;;1.66;100.00;-18072.19;5042883;28;20585;-88
2023/03/15 03:56:59;;;;;;;15.45;7.65;;;;;;;1.67;100.00;-18072.59;5041614;28;20752;-87
2023/03/15 03:59:24;;;;;;;16.50;7.00;;;;;;;1.61;100.00;-18070.94;5033312;28;20057;-88
2023/03/15 04:01:53;;;;;;;17.70;9.20;;;;;;;1.62;100.00;-18071.06;4996279;28;20044;-88
2023/03/15 04:04:18;;;;;;;13.20;6.32;;;;;;;1.61;100.00;-18070.78;5034142;28;20046;-89
2023/03/15 04:06:44;;;;;;;18.05;8.50;;;;;;;1.58;100.00;-18070.25;5033209;28;20041;-88
2023/03/15 04:09:14;;;;;;;15.75;8.05;;;;;;;1.53;100.00;-18068.72;5025597;28;20092;-87
2023/03/15 04:11:43;;;;;;;16.65;8.40;;;;;;;1.54;100.00;-18069.13;5036632;28;20041;-86
2023/03/15 04:14:09;;;;;;;21.57;10.70;;;;;;;1.55;100.00;-18069.28;5017058;28;20044;-88
2023/03/15 04:16:35;;;;;;;16.60;7.40;;;;;;;1.53;100.00;-18068.84;5036970;28;20492;-89
2023/03/15 04:19:00;;;;;;;18.88;8.60;;;;;;;1.57;100.00;-18069.97;5024866;28;20052;-88
2023/03/15 04:21:30;;;;;;;18.58;10.07;;;;;;;1.56;100.00;-18069.53;5043052;28;20045;-88
2023/03/15 04:23:57;;;;;;;18.88;10.70;;;;;;;1.53;100.00;-18068.84;5034877;28;20033;-88
2023/03/15 04:26:25;;;;;;;17.05;8.80;;;;;;;1.53;100.00;-18068.84;5033640;28;20234;-88
2023/03/15 04:28:52;;;;;;;18.60;9.50;;;;;;;1.58;100.00;-18070.25;5033146;28;20053;-88
2023/03/15 04:31:17;;;;;;;18.67;9.13;;;;;;;1.54;100.00;-18069.13;5039034;28;20048;-88
2023/03/15 04:33:42;;;;;;;17.83;10.38;;;;;;;1.50;100.00;-18068.03;5031497;28;20037;-88
2023/03/15 04:36:08;;;;;;;18.45;8.52;;;;;;;1.50;100.00;-18068.03;5022725;28;20068;-88
2023/03/15 04:38:34;;;;;;;20.30;10.07;;;;;;;1.49;100.00;-18067.75;5038025;28;20041;-89
2023/03/15 04:40:59;;;;;;;18.10;9.75;;;;;;;1.56;100.00;-18069.69;5025093;28;20052;-88
2023/03/15 04:43:25;;;;;;;16.90;9.30;;;;;;;1.52;100.00;-18068.44;5032070;28;20611;-89
2023/03/15 04:45:50;;;;;;;20.42;8.90;;;;;;;1.53;100.00;-18068.84;5017553;28;20033;-87
2023/03/15 04:48:16;;;;;;;21.40;10.57;;;;;;;1.48;100.00;-18067.34;5034073;28;20052;-88
2023/03/15 04:50:41;;;;;;;21.92;10.40;;;;;;;1.49;100.00;-18067.75;5024592;28;20040;-88
2023/03/15 04:53:06;;;;;;;17.33;9.80;;;;;;;1.54;100.00;-18069.00;5038630;28;20385;-88
2023/03/15 04:55:32;;;;;;;16.13;8.00;;;;;;;1.53;100.00;-18068.84;5025627;28;20700;-88
2023/03/15 04:57:57;;;;;;;18.63;10.07;;;;;;;1.51;100.00;-18068.31;5042451;28;20500;-88
2023/03/15 05:00:22;;;;;;;16.45;7.53;;;;;;;1.48;100.00;-18067.47;5027740;28;20443;-88
2023/03/15 05:02:53;;;;;;;17.65;8.30;;;;;;;1.48;100.00;-18067.34;5028839;28;20043;-88
2023/03/15 05:05:21;;;;;;;17.50;7.80;;;;;;;1.48;100.00;-18067.47;5039079;28;20124;-88
2023/03/15 05:07:46;;;;;;;20.98;9.27;;;;;;;1.53;100.00;-18068.84;5036744;28;20056;-89
2023/03/15 05:10:12;;;;;;;21.60;11.70;;;;;;;1.56;100.00;-18069.69;5004187;28;20124;-88
2023/03/15 05:12:37;;;;;;;23.20;11.13;;;;;;;1.56;100.00;-18069.69;5036049;28;20041;-89
2023/03/15 05:15:03;;;;;;;23.17;11.90;;;;;;;1.57;100.00;-18069.97;5034738;28;20083;-88
2023/03/15 05:17:28;;;;;;;20.92;12.15;;;;;;;1.55;100.00;-18069.41;5042362;28;20049;-88
2023/03/15 05:19:54;;;;;;;25.42;13.13;;;;;;;1.52;100.00;-18068.56;5022986;28;20496;-88
2023/03/15 05:22:24;;;;;;;23.85;11.80;;;;;;;1.53;100.00;-18068.84;5023738;28;20096;-88
2023/03/15 05:24:49;;;;;;;24.83;13.15;;;;;;;1.52;100.00;-18068.44;5032163;28;20535;-88
2023/03/15 05:27:15;;;;;;;21.13;10.40;;;;;;;1.50;100.00;-18067.88;5042555;28;20048;-88
2023/03/15 05:29:50;;;;;;;18.30;10.60;;;;;;;1.51;100.00;-18068.31;5016220;28;20459;-89
2023/03/15 05:32:15;;;;;;;19.73;11.43;;;;;;;1.50;100.00;-18068.03;5020599;28;20123;-87
2023/03/15 05:34:41;;;;;;;21.27;12.15;;;;;;;1.50;100.00;-18068.03;5019284;28;20041;-87
2023/03/15 05:37:07;;;;;;;21.38;12.32;;;;;;;1.50;100.00;-18068.03;5038348;28;20043;-89
2023/03/15 05:39:33;;;;;;;24.90;12.00;;;;;;;1.50;100.00;-18067.88;5037900;28;20594;-88
2023/03/15 05:41:59;;;;;;;28.30;15.00;;;;;;;1.51;100.00;-18068.31;5033790;28;20045;-88
2023/03/15 05:44:25;;;;;;;25.20;13.65;;;;;;;1.52;100.00;-18068.44;5040027;28;20046;-88
2023/03/15 05:46:50;;;;;;;29.38;17.65;;;;;;;1.46;100.00;-18066.91;5025821;28;20582;-89
2023/03/15 05:49:15;;;;;;;33.53;18.63;;;;;;;1.49;100.00;-18067.75;5033564;28;20044;-88
2023/03/15 05:51:41;;;;;;;23.88;14.48;;;;;;;1.48;100.00;-18067.47;5032401;28;20053;-87
2023/03/15 05:54:06;;;;;;;21.08;11.07;;;;;;;1.43;100.00;-18066.09;5036479;28;20084;-89
2023/03/15 05:56:31;;;;;;;19.52;10.90;;;;;;;1.39;100.00;-18064.84;5035195;28;20492;-89
2023/03/15 05:58:57;;;;;;;24.45;13.38;;;;;;;1.38;100.00;-18064.69;5034707;28;21577;-86
2023/03/15 06:01:22;;;;;;;21.40;10.73;;;;;;;1.32;100.00;-18063.03;5038749;28;20053;-90
2023/03/15 06:03:55;;;;;;;23.05;11.45;;;;;;;1.38;100.00;-18064.56;5024525;28;20049;-89
2023/03/15 06:06:21;;;;;;;29.92;13.15;;;;;;;1.34;100.00;-18063.59;5001334;28;20045;-88
2023/03/15 06:08:46;;;;;;;19.50;10.35;;;;;;;1.33;100.00;-18063.47;4984892;28;20077;-88
2023/03/15 06:11:12;;;;;;;26.80;12.68;;;;;;;1.33;100.00;-18063.31;5000034;28;20930;-88
2023/03/15 06:14:12;;;;;;;22.83;9.77;;;;;;;1.33;100.00;-18063.31;4961450;28;20054;-88
2023/03/15 06:16:49;;;;;;;25.33;12.50;;;;;;;1.35;100.00;-18063.88;4963759;28;20042;-90
2023/03/15 06:19:14;;;;;;;27.73;14.07;;;;;;;1.37;100.00;-18064.28;4957653;28;20703;-88
2023/03/15 06:21:39;;;;;;;24.65;12.63;;;;;;;1.36;100.00;-18064.16;4976703;28;20038;-88
2023/03/15 06:24:21;;;;;;;23.85;12.57;;;;;;;1.31;100.00;-18062.91;4976834;28;20046;-88
2023/03/15 06:26:46;;;;;;;22.85;12.48;;;;;;;1.31;100.00;-18062.91;4961546;28;20737;-89
2023/03/15 06:29:18;;;;;;;26.73;13.48;;;;;;;1.31;100.00;-18062.75;4974450;28;20081;-88
2023/03/15 06:31:43;;;;;;;22.85;10.35;;;;;;;1.27;100.00;-18061.78;4995416;28;20667;-89
2023/03/15 06:34:11;;;;;;;27.50;13.80;;;;;;;1.31;100.00;-18062.91;4993169;28;20060;-89
2023/03/15 06:36:37;;;;;;;33.97;19.27;;;;;;;1.38;100.00;-18064.69;4982038;28;20125;-87
2023/03/15 06:39:04;;;;;;;32.33;15.63;;;;;;;1.32;100.00;-18063.19;4984257;28;20065;-89
2023/03/15 06:41:31;;;;;;;29.40;14.07;;;;;;;1.31;100.00;-18062.91;5008438;28;20042;-88
2023/03/15 06:43:57;;;;;;;30.30;16.35;;;;;;;1.32;100.00;-18063.03;4997801;28;20050;-89
2023/03/15 06:46:22;;;;;;;27.90;15.20;;;;;;;1.33;100.00;-18063.47;5006578;28;20087;-88
2023/03/15 06:48:48;;;;;;;31.83;17.65;;;;;;;1.36;100.00;-18064.16;4991058;28;20053;-89
2023/03/15 06:51:16;;;;;;;32.13;17.20;;;;;;;1.35;100.00;-18064.00;4989843;28;20038;-88
2023/03/15 06:53:41;;;;;;;33.58;16.23;;;;;;;1.36;100.00;-18064.16;4990259;28;20038;-86
2023/03/15 06:56:07;;;;;;;26.95;12.40;;;;;;;1.36;100.00;-18064.16;5010532;28;20053;-88
2023/03/15 06:58:32;;;;;;;27.60;14.60;;;;;;;1.38;100.00;-18064.69;5040552;28;20420;-88
2023/03/15 07:00:58;;;;;;;29.73;17.77;;;;;;;1.37;100.00;-18064.44;5038611;28;20076;-88
2023/03/15 07:03:23;;;;;;;32.00;15.95;;;;;;;1.39;100.00;-18064.97;5036446;28;20098;-88
2023/03/15 07:05:51;;;;;;;31.42;16.75;;;;;;;1.43;100.00;-18065.94;5012477;28;20061;-89
2023/03/15 07:08:26;;;;;;;28.35;14.15;;;;;;;1.41;100.00;-18065.38;4970520;28;20070;-88
2023/03/15 07:10:55;;;;;;;22.65;12.20;;;;;;;1.41;100.00;-18065.53;5003209;28;20531;-89
2023/03/15 07:13:25;;;;;;;27.88;14.65;;;;;;;1.47;100.00;-18067.06;4956217;28;20039;-89
2023/03/15 07:15:55;;;;;;;23.92;12.70;;;;;;;1.51;100.00;-18068.16;4964067;28;20030;-88
2023/03/15 07:18:26;;;;;;;27.10;15.63;;;;;;;1.50;100.00;-18068.03;4965707;28;20131;-89
2023/03/15 07:21:01;;;;;;;25.65;11.68;;;;;;;1.53;100.00;-18068.84;4940592;28;20039;-90
2023/03/15 07:23:33;;;;;;;22.95;12.05;;;;;;;1.60;100.00;-18070.66;4910656;29;20047;-89
2023/03/15 07:26:11;;;;;;;31.65;15.20;;;;;;;1.69;100.00;-18073.16;4873805;29;20919;-89
2023/03/15 07:28:36;;;;;;;20.02;11.35;;;;;;;1.69;100.00;-18073.00;4894017;29;20096;-89
2023/03/15 07:31:04;;;;;;;22.80;12.18;;;;;;;1.65;100.00;-18072.03;4911774;29;20036;-89
2023/03/15 07:33:32;;;;;;;23.38;11.88;;;;;;;1.66;100.00;-18072.31;4928806;29;20700;-89
2023/03/15 07:36:38;;;;;;;;;;;;;;;;;;;;;
2023/03/15 07:39:27;;;;;;;18.77;9.43;;;;;;;1.76;100.00;-18074.94;4888771;29;20051;-88
2023/03/15 07:42:11;;;;;;;;;;;;;;;;;;;;;
2023/03/15 07:44:37;;;;;;;16.95;8.93;;;;;;;1.83;100.00;-18076.88;4932669;28;20046;-87
2023/03/15 07:47:02;;;;;;;16.75;8.95;;;;;;;1.90;100.00;-18078.69;4900915;29;20044;-89
2023/03/15 07:49:30;;;;;;;18.88;7.85;;;;;;;1.92;100.00;-18079.38;4921376;29;20107;-89
2023/03/15 07:51:56;;;;;;;14.55;7.28;;;;;;;1.94;100.00;-18079.94;4912010;29;20050;-87
2023/03/15 07:55:11;;;;;;;15.57;7.57;;;;;;;2.01;100.00;-18081.72;4947132;28;20053;-88
2023/03/15 07:57:59;;;;;;;15.07;8.85;;;;;;;2.04;100.00;-18082.56;4948151;28;20028;-88
2023/03/15 08:00:25;;;;;;;21.77;9.90;;;;;;;2.13;100.00;-18085.03;4927392;28;20044;-89
2023/03/15 08:02:50;;;;;;;16.83;6.07;;;;;;;2.17;100.00;-18086.00;4917250;29;20036;-88
2023/03/15 08:05:19;;;;;;;16.40;7.15;;;;;;;2.24;100.00;-18087.94;4899437;29;20044;-88
2023/03/15 08:07:46;;;;;;;17.15;10.07;;;;;;;2.36;100.00;-18091.28;4889939;29;20040;-89
2023/03/15 08:10:12;;;;;;;15.45;7.22;;;;;;;2.37;100.00;-18091.53;4892245;29;20051;-89
2023/03/15 08:12:39;;;;;;;16.63;8.65;;;;;;;2.45;100.00;-18093.63;4914575;29;20290;-88
2023/03/15 08:15:05;;;;;;;14.63;7.38;;;;;;;2.48;100.00;-18094.59;4926921;29;20059;-88
2023/03/15 08:17:31;;;;;;;15.27;7.95;;;;;;;2.54;100.00;-18095.97;4912012;29;20096;-88
2023/03/15 08:19:56;;;;;;;15.98;8.30;;;;;;;2.60;100.00;-18097.78;4917061;29;20043;-88
2023/03/15 08:22:22;;;;;;;13.38;6.70;;;;;;;2.66;100.00;-18099.28;4938249;29;20044;-90
2023/03/15 08:24:49;;;;;;;15.35;6.63;;;;;;;2.66;100.00;-18099.44;4942154;29;20043;-88
2023/03/15 08:27:14;;;;;;;12.88;5.72;;;;;;;2.67;100.00;-18099.56;4938336;29;20756;-88
2023/03/15 08:29:40;;;;;;;9.70;5.65;;;;;;;2.68;100.00;-18099.97;4956220;28;20049;-88
2023/03/15 08:32:06;;;;;;;13.95;6.38;;;;;;;2.71;100.00;-18100.69;5029951;28;20044;-88
2023/03/15 08:34:33;;;;;;;10.85;5.80;;;;;;;2.81;100.00;-18103.44;5032350;28;20526;-90
2023/03/15 08:36:58;;;;;;;9.98;5.32;;;;;;;2.69;100.00;-18100.13;5029455;28;20293;-88
2023/03/15 08:39:24;;;;;;;9.88;4.45;;;;;;;2.74;100.00;-18101.50;5047224;28;20048;-89
2023/03/15 08:41:50;;;;;;;11.00;4.03;;;;;;;2.72;100.00;-18101.09;5047666;28;20507;-89
2023/03/15 08:44:15;;;;;;;8.93;4.55;;;;;;;2.88;100.00;-18105.38;5047786;28;20036;-89
2023/03/15 08:46:40;;;;;;;9.40;3.90;;;;;;;3.01;100.00;-18108.69;5047333;28;20049;-88
2023/03/15 08:49:06;;;;;;;9.55;3.47;;;;;;;2.96;100.00;-18107.31;5021855;28;20465;-89
2023/03/15 08:51:32;;;;;;;8.23;3.90;;;;;;;3.04;100.00;-18109.53;5021660;28;20090;-89
2023/03/15 08:53:58;;;;;;;9.48;3.97;;;;;;;3.11;100.00;-18111.47;5033663;28;20048;-88
2023/03/15 08:56:23;;;;;;;8.77;5.45;;;;;;;3.17;100.00;-18113.13;5045623;28;20053;-89
2023/03/15 08:58:49;;;;;;;12.35;6.88;;;;;;;3.23;100.00;-18114.78;5046851;28;20059;-89
2023/03/15 09:01:16;;;;;;;12.75;4.68;;;;;;;3.25;100.00;-18115.31;5048219;28;20121;-89
2023/03/15 09:03:42;;;;;;;8.27;4.70;;;;;;;3.21;100.00;-18114.22;5029778;28;20036;-89
2023/03/15 09:06:08;;;;;;;10.10;4.28;;;;;;;3.22;100.00;-18114.34;5044155;28;20040;-89
2023/03/15 09:08:34;;;;;;;9.00;3.90;;;;;;;3.37;100.00;-18118.66;5031982;28;20048;-89
2023/03/15 09:11:00;;;;;;;8.43;3.15;;;;;;;3.34;100.00;-18117.81;5047312;28;20067;-89
2023/03/15 09:13:27;;;;;;;9.82;3.35;;;;;;;3.43;100.00;-18120.16;5042376;28;20037;-89
2023/03/15 09:15:53;;;;;;;6.32;2.90;;;;;;;3.44;100.00;-18120.31;5034989;28;20558;-89
2023/03/15 09:18:20;;;;;;;7.72;2.80;;;;;;;3.56;100.00;-18123.63;5038409;28;20056;-88
2023/03/15 09:20:45;;;;;;;11.60;3.10;;;;;;;3.55;100.00;-18123.47;5025582;28;20047;-89
2023/03/15 09:23:12;;;;;;;11.32;2.80;;;;;;;3.69;100.00;-18127.22;5034496;28;20162;-89
2023/03/15 09:26:04;;;;;;;8.70;2.80;;;;;;;3.86;100.00;-18131.63;5039849;28;20500;-88
2023/03/15 09:29:20;;;;;;;9.05;3.03;;;;;;;4.02;100.00;-18136.06;4998574;28;20057;-88
2023/03/15 09:31:44;;;;;;;10.27;3.20;;;;;;;4.17;100.00;-18140.19;4983362;28;20034;-88
2023/03/15 09:34:10;;;;;;;6.65;2.42;;;;;;;4.11;100.00;-18138.53;5004644;28;20114;-88
2023/03/15 09:36:35;;;;;;;7.72;2.47;;;;;;;4.08;100.00;-18137.72;5004154;28;20045;-89
2023/03/15 09:39:01;;;;;;;6.80;2.47;;;;;;;4.29;100.00;-18143.50;5001593;28;20685;-89
2023/03/15 09:41:49;;;;;;;6.05;2.55;;;;;;;4.35;100.00;-18145.03;5002938;28;20272;-90
2023/03/15 09:44:42;;;;;;;4.15;1.92;;;;;;;4.39;100.00;-18146.00;5002257;28;20046;-89
2023/03/15 09:47:36;;;;;;;8.60;2.55;;;;;;;4.38;100.00;-18145.88;5017786;28;20091;-89
2023/03/15 09:50:01;;;;;;;7.05;2.22;;;;;;;4.45;100.00;-18147.66;4994091;28;20064;-89
2023/03/15 09:52:37;;;;;;;4.60;1.95;;;;;;;4.48;100.00;-18148.47;5021069;28;20045;-88
2023/03/15 09:55:21;;;;;;;8.70;2.88;;;;;;;4.56;100.00;-18150.56;5017853;28;20049;-89
2023/03/15 09:57:51;;;;;;;5.88;1.90;;;;;;;4.56;100.00;-18150.69;4999990;28;20076;-89
2023/03/15 10:00:26;;;;;;;9.38;2.33;;;;;;;4.60;100.00;-18151.66;5022300;28;20632;-88
2023/03/15 10:03:01;;;;;;;5.40;1.80;;;;;;;4.73;100.00;-18155.25;5036163;28;20040;-89
2023/03/15 10:05:43;;;;;;;5.65;2.33;;;;;;;4.87;100.00;-18158.97;5030363;28;20070;-89
2023/03/15 10:08:17;;;;;;;18.42;3.45;;;;;;;5.08;100.00;-18164.78;5023086;28;20620;-89
2023/03/15 10:11:08;;;;;;;5.68;2.00;;;;;;;5.03;100.00;-18163.25;5020272;28;20631;-89
2023/03/15 10:13:43;;;;;;;7.72;2.25;;;;;;;5.04;100.00;-18163.53;5013083;28;20415;-89
2023/03/15 10:16:24;;;;;;;5.28;1.50;;;;;;;5.10;100.00;-18165.31;5017564;28;20045;-89
2023/03/15 10:19:13;;;;;;;14.15;3.55;;;;;;;5.26;100.00;-18169.59;5031895;28;20091;-89
2023/03/15 10:22:11;;;;;;;9.07;2.08;;;;;;;5.27;100.00;-18169.75;5030115;28;20033;-89
2023/03/15 10:24:47;;;;;;;7.28;1.40;;;;;;;5.29;100.00;-18170.28;5000299;28;21142;-89
2023/03/15 10:27:16;;;;;;;7.03;2.50;;;;;;;5.41;100.00;-18173.63;5029429;28;20554;-89
2023/03/15 10:29:43;;;;;;;7.03;2.37;;;;;;;5.46;100.00;-18174.84;5021119;28;20053;-89
2023/03/15 10:32:17;;;;;;;7.63;2.38;;;;;;;5.43;100.00;-18174.16;5028829;28;20276;-90
2023/03/15 10:34:51;;;;;;;9.20;2.20;;;;;;;5.51;100.00;-18176.22;5033153;28;20272;-89
2023/03/15 10:37:17;;;;;;;6.00;2.17;;;;;;;5.59;100.00;-18178.56;5013616;28;20420;-89
2023/03/15 10:39:48;;;;;;;6.35;1.60;;;;;;;5.65;100.00;-18180.09;5032997;28;20096;-88
2023/03/15 10:42:44;;;;;;;7.10;1.70;;;;;;;5.91;100.00;-18187.00;5019687;28;20048;-88
2023/03/15 10:45:22;;;;;;;6.18;1.50;;;;;;;6.00;100.00;-18189.47;5016866;28;20040;-89
2023/03/15 10:47:49;;;;;;;4.47;1.33;;;;;;;5.85;100.00;-18185.63;5026849;28;20048;-89
2023/03/15 10:50:26;;;;;;;4.45;1.23;;;;;;;5.74;100.00;-18182.56;5035253;28;20492;-89
2023/03/15 10:52:55;;;;;;;5.70;1.25;;;;;;;5.97;100.00;-18188.78;5014143;28;20065;-89
2023/03/15 10:55:35;;;;;;;5.05;1.45;;;;;;;6.00;100.00;-18189.47;5029955;28;20048;-88
2023/03/15 10:58:23;;;;;;;5.78;1.45;;;;;;;5.96;100.00;-18188.38;5021603;28;20048;-89
2023/03/15 11:00:58;;;;;;;4.45;1.00;;;;;;;5.97;100.00;-18188.66;5034402;28;20423;-89
2023/03/15 11:03:24;;;;;;;5.25;1.25;;;;;;;6.12;100.00;-18192.66;5037082;28;20520;-89
2023/03/15 11:05:55;;;;;;;3.83;1.08;;;;;;;6.22;100.00;-18195.41;5025679;28;20072;-88
2023/03/15 11:08:23;;;;;;;4.82;1.00;;;;;;;6.09;100.00;-18192.09;5028525;28;20126;-89
2023/03/15 11:10:59;;;;;;;3.70;1.13;;;;;;;6.25;100.00;-18196.38;4999076;28;20625;-89
2023/03/15 11:13:35;;;;;;;4.75;1.08;;;;;;;6.23;100.00;-18195.69;4980867;28;20512;-90
2023/03/15 11:16:13;;;;;;;5.85;1.40;;;;;;;6.40;100.00;-18200.38;4980497;28;20092;-89
2023/03/15 11:18:54;;;;;;;4.72;1.40;;;;;;;6.41;100.00;-18200.66;4990698;28;20046;-88
2023/03/15 11:21:27;;;;;;;4.13;0.88;;;;;;;6.38;100.00;-18199.81;4948192;28;20066;-88
2023/03/15 11:23:54;;;;;;;7.38;1.58;;;;;;;6.25;100.00;-18196.38;4985628;28;20084;-89
2023/03/15 11:26:24;;;;;;;2.47;1.05;;;;;;;6.30;100.00;-18197.63;4998225;28;20065;-89
2023/03/15 11:28:59;;;;;;;6.00;1.10;;;;;;;6.39;100.00;-18199.97;4987679;28;20043;-89
2023/03/15 11:31:27;;;;;;;3.00;0.80;;;;;;;6.36;100.00;-18199.28;4980715;28;20042;-89